createdAt,value
2022-08-20T00:01:41.953Z,101034.63
2022-08-20T00:03:50.066Z,101038.44
2022-08-20T00:05:58.824Z,101039.38
2022-08-20T00:08:04.087Z,101039.41
2022-08-20T00:10:09.456Z,101035.03
2022-08-20T00:12:17.005Z,101038.53
2022-08-20T00:14:21.847Z,101032.34
2022-08-20T00:16:27.356Z,101034.06
2022-08-20T00:18:30.847Z,101025.22
2022-08-20T00:20:37.600Z,101032.25
2022-08-20T00:22:42.051Z,101030.56
2022-08-20T00:24:45.495Z,101036.81
2022-08-20T00:26:52.499Z,101035.03
2022-08-20T00:28:56.263Z,101032.38
2022-08-20T00:31:01.111Z,101035.88
2022-08-20T00:33:06.952Z,101033.97
2022-08-20T00:35:13.052Z,101034.91
2022-08-20T00:37:16.660Z,101029.63
2022-08-20T00:39:20.050Z,101026.13
2022-08-20T00:41:25.624Z,101034.91
2022-08-20T00:43:35.664Z,101027.19
2022-08-20T00:45:39.012Z,100984.25
2022-08-20T00:47:51.054Z,101039.69
2022-08-20T00:49:55.018Z,101037.88
2022-08-20T00:52:03.018Z,101041.53
2022-08-20T00:54:10.846Z,101040.66
2022-08-20T00:56:14.963Z,101038.00
2022-08-20T00:58:19.800Z,101040.06
2022-08-20T01:00:26.938Z,101041.03
2022-08-20T01:02:32.496Z,101038.38
2022-08-20T01:04:38.095Z,101036.44
2022-08-20T01:06:42.626Z,101036.44
2022-08-20T01:08:45.988Z,101036.38
2022-08-20T01:10:53.693Z,101035.56
2022-08-20T01:12:59.899Z,101039.97
2022-08-20T01:15:04.619Z,101040.72
2022-08-20T01:17:09.650Z,101041.53
2022-08-20T01:19:29.802Z,101037.09
2022-08-20T01:21:35.188Z,101025.66
2022-08-20T01:23:44.611Z,101029.13
2022-08-20T01:25:51.507Z,101031.75
2022-08-20T01:27:57.321Z,101028.22
2022-08-20T01:30:06.070Z,101019.41
2022-08-20T01:32:10.816Z,101016.75
2022-08-20T01:34:16.873Z,101023.84
2022-08-20T01:36:25.555Z,101029.19
2022-08-20T01:38:29.574Z,101028.31
2022-08-20T01:40:49.376Z,101025.56
2022-08-20T01:42:59.115Z,101034.47
2022-08-20T01:45:03.773Z,101037.22
2022-08-20T01:47:15.271Z,101039.03
2022-08-20T01:49:23.877Z,101036.34
2022-08-20T01:51:31.174Z,101035.47
2022-08-20T01:53:37.398Z,101031.03
2022-08-20T01:55:40.876Z,101052.19
2022-08-20T01:57:44.776Z,101050.50
2022-08-20T01:59:51.471Z,101046.09
2022-08-20T02:01:55.110Z,101052.19
2022-08-20T02:03:58.636Z,101049.59
2022-08-20T02:06:02.124Z,101049.66
2022-08-20T02:08:05.948Z,101054.16
2022-08-20T02:10:11.975Z,101061.38
2022-08-20T02:12:16.648Z,101057.91
2022-08-20T02:14:20.596Z,101061.41
2022-08-20T02:16:29.113Z,101060.63
2022-08-20T02:18:32.720Z,101051.84
2022-08-20T02:20:37.342Z,101055.31
2022-08-20T02:24:53.558Z,101046.34
2022-08-20T02:26:57.320Z,101050.66
2022-08-20T02:29:01.197Z,101055.13
2022-08-20T02:31:08.322Z,101049.84
2022-08-20T02:33:15.296Z,101051.69
2022-08-20T02:35:20.380Z,101049.88
2022-08-20T02:37:23.708Z,101048.94
2022-08-20T02:39:27.704Z,101051.50
2022-08-20T02:41:31.104Z,101052.50
2022-08-20T02:43:34.865Z,101046.19
2022-08-20T02:45:43.931Z,101050.66
2022-08-20T02:47:48.268Z,101048.88
2022-08-20T02:49:54.208Z,101055.97
2022-08-20T02:51:57.548Z,101062.34
2022-08-20T02:54:01.065Z,101057.81
2022-08-20T02:56:06.527Z,101060.47
2022-08-20T02:58:10.156Z,101057.84
2022-08-20T03:00:17.171Z,101067.56
2022-08-20T03:02:21.584Z,101061.38
2022-08-20T03:04:25.004Z,101051.63
2022-08-20T03:06:31.521Z,101056.84
2022-08-20T03:08:35.624Z,101048.00
2022-08-20T03:10:42.118Z,101045.31
2022-08-20T03:12:45.523Z,101045.50
2022-08-20T03:14:51.958Z,101046.44
2022-08-20T03:16:55.808Z,101058.72
2022-08-20T03:18:59.635Z,101042.72
2022-08-20T03:21:03.660Z,101043.69
2022-08-20T03:23:08.628Z,101042.88
2022-08-20T03:25:12.502Z,101041.00
2022-08-20T03:27:15.888Z,101034.78
2022-08-20T03:29:19.321Z,101038.31
2022-08-20T03:31:22.703Z,101041.88
2022-08-20T03:33:26.665Z,101037.47
2022-08-20T03:35:32.060Z,101041.88
2022-08-20T03:37:37.086Z,101034.81
2022-08-20T03:39:44.502Z,101032.19
2022-08-20T03:41:48.386Z,101036.63
2022-08-20T03:43:52.338Z,101034.03
2022-08-20T03:45:56.140Z,101028.78
2022-08-20T03:48:01.693Z,101036.75
2022-08-20T03:50:08.105Z,101032.25
2022-08-20T03:52:11.762Z,101030.47
2022-08-20T03:54:15.186Z,101031.31
2022-08-20T03:56:19.949Z,101033.09
2022-08-20T03:58:34.747Z,101022.50
2022-08-20T04:00:42.293Z,101025.19
2022-08-20T04:02:46.613Z,101029.50
2022-08-20T04:04:50.103Z,101019.72
2022-08-20T04:06:54.308Z,101030.28
2022-08-20T04:08:57.956Z,101030.28
2022-08-20T04:11:01.875Z,101039.19
2022-08-20T04:13:08.027Z,101029.44
2022-08-20T04:15:18.603Z,101044.44
2022-08-20T04:17:32.277Z,101042.69
2022-08-20T04:19:38.055Z,101048.88
2022-08-20T04:21:41.445Z,101051.50
2022-08-20T04:23:44.874Z,101055.03
2022-08-20T04:25:50.190Z,101056.88
2022-08-20T04:27:53.602Z,101057.81
2022-08-20T04:29:58.325Z,101056.97
2022-08-20T04:32:05.924Z,101062.31
2022-08-20T04:34:09.545Z,101060.59
2022-08-20T04:36:14.085Z,101069.53
2022-08-20T04:38:19.911Z,101069.53
2022-08-20T04:40:52.613Z,101070.47
2022-08-20T04:42:56.219Z,101085.47
2022-08-20T04:45:01.105Z,101083.72
2022-08-20T04:47:04.586Z,101080.25
2022-08-20T04:49:08.689Z,101082.03
2022-08-20T04:51:14.835Z,101074.22
2022-08-20T04:53:25.655Z,101085.59
2022-08-20T04:55:29.407Z,101087.31
2022-08-20T04:57:33.500Z,101085.56
2022-08-20T04:59:36.955Z,101096.22
2022-08-20T05:01:41.869Z,101101.59
2022-08-20T05:03:45.960Z,101083.97
2022-08-20T05:05:50.284Z,101096.50
2022-08-20T05:07:55.430Z,101093.16
2022-08-20T05:10:05.500Z,101087.88
2022-08-20T05:12:09.716Z,101096.72
2022-08-20T05:14:13.904Z,101097.56
2022-08-20T05:16:18.050Z,101096.63
2022-08-20T05:18:26.307Z,101097.56
2022-08-20T05:20:31.373Z,101096.59
2022-08-20T05:22:34.815Z,101094.06
2022-08-20T05:24:39.649Z,101090.50
2022-08-20T05:26:43.024Z,101093.97
2022-08-20T05:28:57.854Z,101100.19
2022-08-20T05:31:07.113Z,101098.41
2022-08-20T05:33:14.000Z,101097.56
2022-08-20T05:35:19.248Z,101092.34
2022-08-20T05:37:22.696Z,101102.94
2022-08-20T05:39:26.093Z,101090.56
2022-08-20T05:41:30.740Z,101086.16
2022-08-20T05:43:34.473Z,101094.16
2022-08-20T05:45:40.396Z,101104.78
2022-08-20T05:47:44.873Z,101074.91
2022-08-20T05:49:49.122Z,101080.06
2022-08-20T05:51:54.135Z,101099.50
2022-08-20T05:53:59.222Z,101102.13
2022-08-20T05:56:03.273Z,101101.22
2022-08-20T05:58:09.641Z,101107.44
2022-08-20T06:00:15.215Z,101108.31
2022-08-20T06:02:38.232Z,101107.44
2022-08-20T06:04:41.955Z,101112.72
2022-08-20T06:06:47.143Z,101106.59
2022-08-20T06:08:52.588Z,101112.75
2022-08-20T06:10:56.814Z,101118.03
2022-08-20T06:13:00.209Z,101113.63
2022-08-20T06:15:03.682Z,101124.25
2022-08-20T06:17:10.697Z,101115.41
2022-08-20T06:19:16.816Z,101120.69
2022-08-20T06:21:28.744Z,101121.56
2022-08-20T06:23:50.372Z,101119.78
2022-08-20T06:25:56.997Z,101126.88
2022-08-20T06:28:00.456Z,101115.44
2022-08-20T06:30:04.605Z,101135.78
2022-08-20T06:32:08.568Z,101129.59
2022-08-20T06:34:12.105Z,101129.56
2022-08-20T06:36:15.544Z,101128.66
2022-08-20T06:38:22.536Z,101133.94
2022-08-20T06:40:29.468Z,101130.38
2022-08-20T06:42:34.494Z,101140.09
2022-08-20T06:44:38.088Z,101141.03
2022-08-20T06:46:43.921Z,101137.50
2022-08-20T06:48:47.372Z,101140.16
2022-08-20T06:50:51.186Z,101137.56
2022-08-20T06:52:54.636Z,101147.22
2022-08-20T06:54:58.110Z,101143.69
2022-08-20T06:57:01.991Z,101138.41
2022-08-20T06:59:06.841Z,101148.09
2022-08-20T07:01:12.147Z,101130.53
2022-08-20T07:03:16.232Z,101155.22
2022-08-20T07:05:20.082Z,101153.41
2022-08-20T07:07:23.563Z,101156.03
2022-08-20T07:09:28.661Z,101151.66
2022-08-20T07:11:32.095Z,101159.63
2022-08-20T07:13:36.605Z,101161.34
2022-08-20T07:15:41.424Z,101165.78
2022-08-20T07:17:50.788Z,101168.41
2022-08-20T07:19:54.196Z,101178.19
2022-08-20T07:21:57.568Z,101163.19
2022-08-20T07:24:01.163Z,101168.50
2022-08-20T07:26:05.489Z,101169.38
2022-08-20T07:28:14.310Z,101165.84
2022-08-20T07:30:55.820Z,101171.13
2022-08-20T07:33:02.447Z,101178.19
2022-08-20T07:35:14.265Z,101176.44
2022-08-20T07:37:17.729Z,101180.81
2022-08-20T07:39:21.273Z,101176.41
2022-08-20T07:41:25.896Z,101166.72
2022-08-20T07:43:29.563Z,101185.19
2022-08-20T07:45:32.938Z,101179.91
2022-08-20T07:47:36.478Z,101187.84
2022-08-20T07:49:41.681Z,101186.13
2022-08-20T07:51:45.808Z,101190.50
2022-08-20T07:53:50.670Z,101192.28
2022-08-20T07:55:59.308Z,101196.66
2022-08-20T07:58:08.721Z,101194.00
2022-08-20T08:00:13.789Z,101191.34
2022-08-20T08:02:17.351Z,101196.59
2022-08-20T08:04:20.858Z,101194.84
2022-08-20T08:06:29.198Z,101193.13
2022-08-20T08:08:34.472Z,101187.81
2022-08-20T08:10:38.190Z,101196.66
2022-08-20T08:12:47.674Z,101176.41
2022-08-20T08:14:51.487Z,101195.78
2022-08-20T08:16:57.303Z,101202.81
2022-08-20T08:19:01.960Z,101195.69
2022-08-20T08:21:07.188Z,101204.47
2022-08-20T08:23:24.789Z,101201.88
2022-08-20T08:25:35.599Z,101213.38
2022-08-20T08:27:39.004Z,101218.69
2022-08-20T08:29:43.344Z,101216.09
2022-08-20T08:31:46.861Z,101209.94
2022-08-20T08:33:50.420Z,101214.31
2022-08-20T08:35:54.333Z,101218.72
2022-08-20T08:37:59.880Z,101216.09
2022-08-20T08:40:05.684Z,101214.31
2022-08-20T08:42:23.271Z,101221.41
2022-08-20T08:44:29.706Z,101233.75
2022-08-20T08:46:40.530Z,101236.41
2022-08-20T08:48:47.699Z,101237.25
2022-08-20T08:50:54.866Z,101217.88
2022-08-20T08:53:01.269Z,101238.13
2022-08-20T08:55:15.879Z,101239.03
2022-08-20T08:57:19.994Z,101244.31
2022-08-20T08:59:24.458Z,101240.78
2022-08-20T09:01:54.541Z,101249.63
2022-08-20T09:03:54.516Z,101251.41
2022-08-20T09:06:00.608Z,101255.78
2022-08-20T09:08:06.754Z,101259.31
2022-08-20T09:10:11.799Z,101259.31
2022-08-20T09:12:18.907Z,101267.25
2022-08-20T09:14:24.921Z,101265.50
2022-08-20T09:16:29.943Z,101266.38
2022-08-20T09:18:52.883Z,101272.56
2022-08-20T09:20:56.623Z,101265.50
2022-08-20T09:23:00.064Z,101269.00
2022-08-20T09:25:03.896Z,101273.44
2022-08-20T09:27:08.930Z,101279.63
2022-08-20T09:29:12.433Z,101276.94
2022-08-20T09:31:15.835Z,101279.59
2022-08-20T09:33:21.786Z,101260.19
2022-08-20T09:35:25.229Z,101280.47
2022-08-20T09:37:36.610Z,101280.47
2022-08-20T09:39:41.573Z,101280.47
2022-08-20T09:41:45.051Z,101280.47
2022-08-20T09:43:49.901Z,101272.56
2022-08-20T09:45:53.654Z,101269.88
2022-08-20T09:47:57.439Z,101271.63
2022-08-20T09:50:01.603Z,101264.63
2022-08-20T09:52:07.569Z,101260.22
2022-08-20T09:54:11.024Z,101271.69
2022-08-20T09:56:14.667Z,101269.88
2022-08-20T09:58:22.682Z,101266.31
2022-08-20T10:00:27.709Z,101269.84
2022-08-20T10:02:31.108Z,101270.69
2022-08-20T10:04:34.538Z,101266.22
2022-08-20T10:06:41.199Z,101260.88
2022-08-20T10:08:44.755Z,101267.94
2022-08-20T10:10:53.559Z,101266.13
2022-08-20T10:12:57.121Z,101268.69
2022-08-20T10:15:00.506Z,101275.81
2022-08-20T10:17:05.606Z,101264.34
2022-08-20T10:19:09.044Z,101272.25
2022-08-20T10:21:13.305Z,101269.66
2022-08-20T10:23:16.852Z,101272.28
2022-08-20T10:25:20.555Z,101276.59
2022-08-20T10:27:23.929Z,101276.56
2022-08-20T10:29:28.952Z,101285.34
2022-08-20T10:31:32.350Z,101268.56
2022-08-20T10:33:37.293Z,101274.81
2022-08-20T10:35:41.152Z,101280.09
2022-08-20T10:37:45.123Z,101281.00
2022-08-20T10:39:49.234Z,101274.88
2022-08-20T10:41:52.995Z,101276.66
2022-08-20T10:43:56.487Z,101274.00
2022-08-20T10:45:59.994Z,101286.28
2022-08-20T10:48:04.134Z,101276.47
2022-08-20T10:50:13.631Z,101283.34
2022-08-20T10:52:17.342Z,101281.63
2022-08-20T10:54:20.822Z,101285.09
2022-08-20T10:56:24.295Z,101289.47
2022-08-20T10:58:39.653Z,101280.41
2022-08-20T11:00:43.442Z,101277.22
2022-08-20T11:02:46.944Z,101274.16
2022-08-20T11:04:51.304Z,101281.16
2022-08-20T11:06:56.285Z,101274.09
2022-08-20T11:08:59.734Z,101277.75
2022-08-20T11:11:03.435Z,101278.81
2022-08-20T11:13:09.259Z,101277.97
2022-08-20T11:15:12.672Z,101281.53
2022-08-20T11:17:20.961Z,101275.72
2022-08-20T11:19:24.375Z,101277.59
2022-08-20T11:21:27.788Z,101277.44
2022-08-20T11:23:32.671Z,101277.13
2022-08-20T11:25:36.764Z,101274.28
2022-08-20T11:27:42.720Z,101274.09
2022-08-20T11:29:46.286Z,101273.19
2022-08-20T11:31:49.957Z,101279.22
2022-08-20T11:33:53.427Z,101278.38
2022-08-20T11:35:56.964Z,101279.56
2022-08-20T11:38:00.818Z,101269.31
2022-08-20T11:40:08.654Z,101270.22
2022-08-20T11:42:12.271Z,101282.66
2022-08-20T11:44:20.102Z,101277.53
2022-08-20T11:46:28.027Z,101274.69
2022-08-20T11:48:32.202Z,101276.59
2022-08-20T11:50:35.689Z,101285.66
2022-08-20T11:52:39.507Z,101284.19
2022-08-20T11:54:44.451Z,101293.06
2022-08-20T11:56:50.562Z,101277.44
2022-08-20T11:58:53.991Z,101277.78
2022-08-20T12:00:57.462Z,101282.97
2022-08-20T12:03:01.241Z,101282.75
2022-08-20T12:05:05.823Z,101285.53
2022-08-20T12:07:11.219Z,101278.06
2022-08-20T12:09:14.690Z,101272.13
2022-08-20T12:11:18.108Z,101272.72
2022-08-20T12:13:23.669Z,101281.41
2022-08-20T12:15:36.384Z,101275.50
2022-08-20T12:17:40.296Z,101274.81
2022-08-20T12:19:44.207Z,101268.22
2022-08-20T12:21:47.706Z,101272.16
2022-08-20T12:23:51.269Z,101239.84
2022-08-20T12:25:54.764Z,101268.25
2022-08-20T12:27:59.513Z,101264.31
2022-08-20T12:30:10.842Z,101260.00
2022-08-20T12:32:15.013Z,101264.75
2022-08-20T12:34:18.434Z,101263.47
2022-08-20T12:36:22.491Z,101262.84
2022-08-20T12:38:25.941Z,101260.22
2022-08-20T12:40:32.476Z,101253.84
2022-08-20T12:42:36.724Z,101266.78
2022-08-20T12:44:40.589Z,101270.00
2022-08-20T12:46:45.340Z,101267.50
2022-08-20T12:48:48.955Z,101257.59
2022-08-20T12:50:52.761Z,101259.25
2022-08-20T12:52:57.767Z,101254.84
2022-08-20T12:55:02.312Z,101254.53
2022-08-20T12:57:07.996Z,101257.31
2022-08-20T12:59:11.657Z,101258.63
2022-08-20T13:01:15.732Z,101261.28
2022-08-20T13:03:21.045Z,101237.03
2022-08-20T13:05:25.125Z,101247.91
2022-08-20T13:07:28.522Z,101256.69
2022-08-20T13:09:32.450Z,101251.94
2022-08-20T13:11:36.025Z,101257.31
2022-08-20T13:13:39.468Z,101255.53
2022-08-20T13:15:43.075Z,101250.66
2022-08-20T13:17:46.586Z,101249.25
2022-08-20T13:19:51.429Z,101247.66
2022-08-20T13:21:55.609Z,101252.50
2022-08-20T13:23:59.126Z,101250.28
2022-08-20T13:26:02.652Z,101242.88
2022-08-20T13:28:06.790Z,101238.84
2022-08-20T13:30:13.304Z,101237.72
2022-08-20T13:32:17.205Z,101227.09
2022-08-20T13:34:20.624Z,101225.41
2022-08-20T13:36:25.941Z,101236.19
2022-08-20T13:38:29.396Z,101237.44
2022-08-20T13:40:32.770Z,101232.22
2022-08-20T13:42:36.629Z,101236.88
2022-08-20T13:44:40.603Z,101233.59
2022-08-20T13:46:44.007Z,101229.72
2022-08-20T13:48:47.648Z,101230.13
2022-08-20T13:50:51.209Z,101224.94
2022-08-20T13:52:56.474Z,101227.56
2022-08-20T13:55:00.551Z,101229.22
2022-08-20T13:57:08.880Z,101226.22
2022-08-20T13:59:12.459Z,101236.50
2022-08-20T14:01:16.189Z,101226.31
2022-08-20T14:03:25.211Z,101216.31
2022-08-20T14:05:30.377Z,101233.69
2022-08-20T14:07:33.974Z,101224.91
2022-08-20T14:09:40.533Z,101221.59
2022-08-20T14:11:43.954Z,101225.72
2022-08-20T14:13:47.627Z,101214.66
2022-08-20T14:15:51.864Z,101218.97
2022-08-20T14:17:58.218Z,101225.22
2022-08-20T14:20:06.900Z,101218.84
2022-08-20T14:22:11.397Z,101225.13
2022-08-20T14:24:14.819Z,101225.03
2022-08-20T14:26:19.606Z,101224.09
2022-08-20T14:28:24.818Z,101227.09
2022-08-20T14:30:30.865Z,101215.22
2022-08-20T14:32:34.325Z,101228.59
2022-08-20T14:34:38.894Z,101213.44
2022-08-20T14:36:42.415Z,101212.78
2022-08-20T14:38:46.006Z,101210.78
2022-08-20T14:40:50.385Z,101206.72
2022-08-20T14:42:56.420Z,101194.53
2022-08-20T14:45:02.212Z,101213.63
2022-08-20T14:47:14.437Z,101221.75
2022-08-20T14:49:18.139Z,101209.06
2022-08-20T14:51:21.658Z,101206.94
2022-08-20T14:53:25.091Z,101213.44
2022-08-20T14:55:30.793Z,101207.66
2022-08-20T14:57:35.237Z,101209.16
2022-08-20T14:59:40.060Z,101204.28
2022-08-20T15:01:43.713Z,101207.16
2022-08-20T15:03:47.086Z,101210.75
2022-08-20T15:05:50.974Z,101184.78
2022-08-20T15:07:54.443Z,101207.09
2022-08-20T15:10:00.410Z,101202.00
2022-08-20T15:12:04.120Z,101201.59
2022-08-20T15:14:07.714Z,101205.94
2022-08-20T15:16:13.557Z,101204.28
2022-08-20T15:18:18.458Z,101194.34
2022-08-20T15:20:31.033Z,101175.88
2022-08-20T15:22:34.516Z,101198.72
2022-08-20T15:24:37.922Z,101195.75
2022-08-20T15:26:44.011Z,101194.97
2022-08-20T15:28:47.582Z,101207.38
2022-08-20T15:30:50.965Z,101202.69
2022-08-20T15:32:56.365Z,101202.84
2022-08-20T15:35:00.784Z,101203.22
2022-08-20T15:37:08.427Z,101197.28
2022-08-20T15:39:11.939Z,101202.53
2022-08-20T15:41:15.695Z,101209.88
2022-08-20T15:43:19.166Z,101207.47
2022-08-20T15:45:22.729Z,101199.38
2022-08-20T15:47:29.686Z,101206.53
2022-08-20T15:49:34.470Z,101205.72
2022-08-20T15:51:44.253Z,101199.25
2022-08-20T15:53:54.878Z,101198.50
2022-08-20T15:56:05.072Z,101200.81
2022-08-20T15:58:15.818Z,101189.16
2022-08-20T16:00:22.455Z,101204.50
2022-08-20T16:02:52.639Z,101200.00
2022-08-20T16:05:11.076Z,101201.97
2022-08-20T16:07:20.887Z,101202.47
2022-08-20T16:09:39.307Z,101196.56
2022-08-20T16:11:50.478Z,101199.13
2022-08-20T16:13:57.710Z,101195.91
2022-08-20T16:16:03.475Z,101184.94
2022-08-20T16:18:09.864Z,101199.50
2022-08-20T16:20:22.226Z,101195.28
2022-08-20T16:22:29.742Z,101206.44
2022-08-20T16:24:34.061Z,101197.13
2022-08-20T16:27:13.877Z,101203.25
2022-08-20T16:29:20.962Z,101192.63
2022-08-20T16:31:29.992Z,101191.97
2022-08-20T16:33:43.597Z,101194.94
2022-08-20T16:35:55.645Z,101195.53
2022-08-20T16:38:07.817Z,101198.50
2022-08-20T16:40:21.168Z,101193.44
2022-08-20T16:42:27.146Z,101189.69
2022-08-20T16:44:35.541Z,101188.22
2022-08-20T16:46:45.778Z,101181.22
2022-08-20T16:48:56.022Z,101186.84
2022-08-20T16:51:06.491Z,101186.03
2022-08-20T16:53:17.833Z,101178.13
2022-08-20T16:55:24.659Z,101185.34
2022-08-20T16:57:29.394Z,101171.50
2022-08-20T16:59:34.314Z,101178.78
2022-08-20T17:01:38.360Z,101164.63
2022-08-20T17:03:51.132Z,101176.69
2022-08-20T17:05:58.553Z,101181.59
2022-08-20T17:08:04.921Z,101178.25
2022-08-20T17:10:16.466Z,101176.00
2022-08-20T17:12:23.611Z,101162.16
2022-08-20T17:14:27.081Z,101178.13
2022-08-20T17:16:34.624Z,101180.84
2022-08-20T17:18:40.798Z,101169.44
2022-08-20T17:20:46.366Z,101181.91
2022-08-20T17:22:52.723Z,101185.72
2022-08-20T17:24:58.032Z,101181.25
2022-08-20T17:27:09.054Z,101188.84
2022-08-20T17:29:17.666Z,101186.00
2022-08-20T17:31:38.831Z,101193.53
2022-08-20T17:33:42.754Z,101195.91
2022-08-20T17:35:53.535Z,101180.75
2022-08-20T17:37:57.487Z,101194.59
2022-08-20T17:40:10.451Z,101193.75
2022-08-20T17:42:18.543Z,101197.81
2022-08-20T17:44:29.273Z,101184.22
2022-08-20T17:46:36.013Z,101194.44
2022-08-20T17:48:44.456Z,101198.81
2022-08-20T17:50:49.933Z,101203.28
2022-08-20T17:52:56.421Z,101202.56
2022-08-20T17:55:02.741Z,101200.72
2022-08-20T17:57:12.313Z,101198.31
2022-08-20T17:59:36.442Z,101205.81
2022-08-20T18:01:43.549Z,101200.75
2022-08-20T18:03:47.457Z,101204.47
2022-08-20T18:05:57.938Z,101221.34
2022-08-20T18:08:13.064Z,101214.50
2022-08-20T18:10:21.798Z,101212.03
2022-08-20T18:12:34.941Z,101208.81
2022-08-20T18:14:50.487Z,101223.78
2022-08-20T18:17:06.430Z,101222.09
2022-08-20T18:19:16.361Z,101211.81
2022-08-20T18:21:44.396Z,101212.69
2022-08-20T18:23:53.690Z,101221.97
2022-08-20T18:26:03.560Z,101175.59
2022-08-20T18:28:21.494Z,101219.41
2022-08-20T18:30:26.205Z,101222.00
2022-08-20T18:32:32.336Z,101221.16
2022-08-20T18:34:39.296Z,101225.59
2022-08-20T18:36:54.417Z,101224.75
2022-08-20T18:39:03.810Z,101229.38
2022-08-20T18:41:10.829Z,101229.38
2022-08-20T18:43:17.055Z,101225.78
2022-08-20T18:45:30.010Z,101233.00
2022-08-20T18:47:46.263Z,101229.66
2022-08-20T18:50:01.483Z,101230.56
2022-08-20T18:52:14.215Z,101227.94
2022-08-20T18:54:25.018Z,101229.69
2022-08-20T18:56:34.405Z,101230.63
2022-08-20T18:58:53.233Z,101230.78
2022-08-20T19:00:57.032Z,101226.34
2022-08-20T19:03:16.996Z,101207.94
2022-08-20T19:05:29.200Z,101222.13
2022-08-20T19:07:48.132Z,101189.78
2022-08-20T19:10:32.952Z,101231.09
2022-08-20T19:13:16.229Z,101207.53
2022-08-20T19:15:23.551Z,101233.56
2022-08-20T19:17:45.975Z,101235.00
2022-08-20T19:19:59.573Z,101236.84
2022-08-20T19:22:04.240Z,101230.63
2022-08-20T19:24:09.418Z,101227.19
2022-08-20T19:26:24.810Z,101214.97
2022-08-20T19:28:32.879Z,101228.28
2022-08-20T19:30:43.419Z,101229.28
2022-08-20T19:32:52.808Z,101238.41
2022-08-20T19:34:57.915Z,101234.09
2022-08-20T19:37:27.995Z,101234.66
2022-08-20T19:39:29.785Z,101236.81
2022-08-20T19:41:42.369Z,101222.81
2022-08-20T19:43:46.415Z,101237.81
2022-08-20T19:45:54.279Z,101236.75
2022-08-20T19:48:10.458Z,101231.44
2022-08-20T19:50:21.355Z,101226.31
2022-08-20T19:52:35.903Z,101238.75
2022-08-20T19:54:47.854Z,101239.63
2022-08-20T19:56:56.249Z,101237.97
2022-08-20T19:59:01.954Z,101234.63
2022-08-20T20:01:18.128Z,101243.41
2022-08-20T20:03:25.058Z,101238.97
2022-08-20T20:05:28.546Z,101246.16
2022-08-20T20:07:40.927Z,101245.31
2022-08-20T20:09:44.713Z,101243.59
2022-08-20T20:11:54.437Z,101237.38
2022-08-20T20:14:02.987Z,101241.81
2022-08-20T20:16:08.434Z,101251.53
2022-08-20T20:18:13.218Z,101243.59
2022-08-20T20:20:24.214Z,101242.75
2022-08-20T20:22:31.109Z,101249.06
2022-08-20T20:24:44.092Z,101239.47
2022-08-20T20:26:49.361Z,101243.91
2022-08-20T20:28:55.683Z,101244.03
2022-08-20T20:31:08.875Z,101247.63
2022-08-20T20:33:16.681Z,101244.28
2022-08-20T20:35:28.970Z,101243.41
2022-08-20T20:37:39.136Z,101254.97
2022-08-20T20:40:04.337Z,101246.19
2022-08-20T20:42:10.804Z,101247.97
2022-08-20T20:44:20.926Z,101254.09
2022-08-20T20:46:28.698Z,101261.22
2022-08-20T20:48:43.060Z,101258.59
2022-08-20T20:50:48.410Z,101253.28
2022-08-20T20:52:55.565Z,101258.53
2022-08-20T20:55:09.609Z,101252.34
2022-08-20T20:57:37.744Z,101247.13
2022-08-20T20:59:43.053Z,101250.63
2022-08-20T21:01:48.767Z,101244.47
2022-08-20T21:03:53.864Z,101225.09
2022-08-20T21:05:57.764Z,101241.84
2022-08-20T21:08:03.750Z,101226.03
2022-08-20T21:10:07.986Z,101242.75
2022-08-20T21:12:13.672Z,101249.94
2022-08-20T21:14:18.244Z,101243.88
2022-08-20T21:16:21.721Z,101242.09
2022-08-20T21:18:26.645Z,101244.81
2022-08-20T21:20:30.397Z,101246.63
2022-08-20T21:22:33.784Z,101252.84
2022-08-20T21:24:37.285Z,101255.59
2022-08-20T21:26:40.834Z,101233.59
2022-08-20T21:28:44.242Z,101190.47
2022-08-20T21:30:47.790Z,101258.41
2022-08-20T21:33:01.168Z,101260.16
2022-08-20T21:35:07.153Z,101256.63
2022-08-20T21:37:10.622Z,101258.41
2022-08-20T21:39:14.489Z,101264.59
2022-08-20T21:41:18.216Z,101260.22
2022-08-20T21:43:33.106Z,101264.72
2022-08-20T21:45:37.090Z,101263.88
2022-08-20T21:47:41.103Z,101265.66
2022-08-20T21:49:44.818Z,101264.78
2022-08-20T21:51:50.650Z,101259.66
2022-08-20T21:53:54.036Z,101251.78
2022-08-20T21:55:57.752Z,101257.97
2022-08-20T21:58:01.502Z,101258.81
2022-08-20T22:00:15.814Z,101261.47
2022-08-20T22:02:21.151Z,101259.63
2022-08-20T22:04:24.641Z,101254.31
2022-08-20T22:06:28.260Z,101207.63
2022-08-20T22:08:33.741Z,101262.25
2022-08-20T22:10:37.288Z,101269.31
2022-08-20T22:12:40.879Z,101257.81
2022-08-20T22:14:44.597Z,101263.97
2022-08-20T22:16:48.014Z,101236.69
2022-08-20T22:18:52.118Z,101258.66
2022-08-20T22:20:55.630Z,101264.03
2022-08-20T22:22:59.385Z,101264.03
2022-08-20T22:25:04.325Z,101260.53
2022-08-20T22:27:10.867Z,101259.72
2022-08-20T22:29:14.413Z,101264.19
2022-08-20T22:31:20.637Z,101235.97
2022-08-20T22:33:24.844Z,101261.59
2022-08-20T22:35:28.664Z,101260.72
2022-08-20T22:37:33.257Z,101264.09
2022-08-20T22:39:38.743Z,101265.72
2022-08-20T22:41:43.718Z,101271.81
2022-08-20T22:43:56.949Z,101261.06
2022-08-20T22:46:02.979Z,101273.22
2022-08-20T22:48:08.023Z,101267.94
2022-08-20T22:50:12.116Z,101270.44
2022-08-20T22:52:15.627Z,101266.81
2022-08-20T22:54:22.132Z,101265.06
2022-08-20T22:56:26.073Z,101268.56
2022-08-20T22:58:31.527Z,101257.16
2022-08-20T23:00:36.246Z,101264.34
2022-08-20T23:02:40.523Z,101269.69
2022-08-20T23:04:44.169Z,101263.63
2022-08-20T23:06:47.669Z,101262.59
2022-08-20T23:08:51.132Z,101271.44
2022-08-20T23:10:55.048Z,101268.69
2022-08-20T23:12:59.107Z,101263.28
2022-08-20T23:15:05.193Z,101266.94
2022-08-20T23:17:13.748Z,101245.78
2022-08-20T23:19:21.624Z,101267.81
2022-08-20T23:21:25.561Z,101265.47
2022-08-20T23:23:29.139Z,101267.28
2022-08-20T23:25:33.086Z,101264.69
2022-08-20T23:27:42.336Z,101253.34
2022-08-20T23:29:45.900Z,101266.50
2022-08-20T23:31:51.384Z,101263.03
2022-08-20T23:33:54.823Z,101265.53
2022-08-20T23:36:00.409Z,101259.53
2022-08-20T23:38:04.498Z,101262.47
2022-08-20T23:40:09.546Z,101257.22
2022-08-20T23:42:13.132Z,101247.56
2022-08-20T23:44:26.274Z,101235.28
2022-08-20T23:46:34.621Z,101243.25
2022-08-20T23:48:39.664Z,101245.94
2022-08-20T23:50:43.423Z,101245.97
2022-08-20T23:52:46.873Z,101248.63
2022-08-20T23:54:50.585Z,101223.91
2022-08-20T23:56:55.558Z,101200.13
2022-08-20T23:59:00.757Z,101240.66
